createdAt,value
2022-10-20T00:01:28.340Z,97912.97
2022-10-20T00:03:57.246Z,97915.66
2022-10-20T00:06:31.748Z,97915.22
2022-10-20T00:09:02.743Z,97906.97
2022-10-20T00:11:31.582Z,97901.78
2022-10-20T00:14:01.626Z,97885.03
2022-10-20T00:16:32.169Z,97893.09
2022-10-20T00:19:00.162Z,97891.81
2022-10-20T00:21:29.665Z,97896.53
2022-10-20T00:24:01.405Z,97902.50
2022-10-20T00:26:31.659Z,97898.97
2022-10-20T00:29:03.634Z,97905.81
2022-10-20T00:31:31.882Z,97897.94
2022-10-20T00:33:59.755Z,97895.06
2022-10-20T00:36:27.673Z,97897.59
2022-10-20T00:39:00.827Z,97901.09
2022-10-20T00:41:30.266Z,97902.75
2022-10-20T00:44:48.969Z,97901.28
2022-10-20T00:47:34.598Z,97896.34
2022-10-20T00:50:31.951Z,97890.91
2022-10-20T00:53:01.640Z,97883.50
2022-10-20T00:55:34.173Z,97873.97
2022-10-20T00:58:03.555Z,97866.53
2022-10-20T01:00:31.671Z,97859.53
2022-10-20T01:03:02.759Z,97856.19
2022-10-20T01:05:30.669Z,97858.25
2022-10-20T01:07:58.545Z,97854.47
2022-10-20T01:10:32.337Z,97841.88
2022-10-20T01:13:27.924Z,97846.09
2022-10-20T01:16:13.389Z,97841.69
2022-10-20T01:19:25.364Z,97841.81
2022-10-20T01:22:28.022Z,97835.41
2022-10-20T01:25:08.627Z,97844.69
2022-10-20T01:28:06.989Z,97836.81
2022-10-20T01:30:42.715Z,97843.81
2022-10-20T01:33:50.581Z,97832.91
2022-10-20T01:36:36.208Z,97834.75
2022-10-20T01:39:13.872Z,97829.41
2022-10-20T01:41:54.384Z,97825.03
2022-10-20T01:44:27.020Z,97819.88
2022-10-20T01:46:57.129Z,97827.94
2022-10-20T01:49:26.073Z,97819.88
2022-10-20T01:51:55.115Z,97814.06
2022-10-20T01:54:28.604Z,97813.22
2022-10-20T01:57:43.108Z,97812.59
2022-10-20T02:00:15.036Z,97802.69
2022-10-20T02:03:03.901Z,97790.66
2022-10-20T02:06:17.319Z,97796.81
2022-10-20T02:08:57.222Z,97795.75
2022-10-20T02:11:48.267Z,97788.44
2022-10-20T02:14:20.410Z,97788.19
2022-10-20T02:16:54.548Z,97785.25
2022-10-20T02:19:26.584Z,97781.25
2022-10-20T02:21:57.395Z,97775.25
2022-10-20T02:24:34.279Z,97763.25
2022-10-20T02:27:25.071Z,97766.03
2022-10-20T02:30:16.344Z,97775.50
2022-10-20T02:32:51.760Z,97779.81
2022-10-20T02:35:32.308Z,97773.28
2022-10-20T02:38:00.219Z,97771.41
2022-10-20T02:40:28.667Z,97773.72
2022-10-20T02:42:56.504Z,97773.97
2022-10-20T02:45:24.443Z,97781.19
2022-10-20T02:47:52.301Z,97772.97
2022-10-20T02:50:20.251Z,97772.56
2022-10-20T02:52:48.167Z,97767.00
2022-10-20T02:55:16.094Z,97762.47
2022-10-20T02:57:43.939Z,97764.34
2022-10-20T03:00:12.755Z,97766.00
2022-10-20T03:02:40.615Z,97766.84
2022-10-20T03:05:08.953Z,97761.09
2022-10-20T03:07:37.199Z,97767.09
2022-10-20T03:10:06.588Z,97756.16
2022-10-20T03:12:34.409Z,97757.00
2022-10-20T03:15:02.381Z,97757.19
2022-10-20T03:17:30.190Z,97762.75
2022-10-20T03:19:58.038Z,97759.88
2022-10-20T03:22:25.900Z,97751.81
2022-10-20T03:24:53.759Z,97764.22
2022-10-20T03:27:21.691Z,97761.75
2022-10-20T03:29:49.579Z,97768.94
2022-10-20T03:32:17.503Z,97763.38
2022-10-20T03:34:45.335Z,97764.59
2022-10-20T03:37:13.174Z,97757.78
2022-10-20T03:39:41.311Z,97756.38
2022-10-20T03:42:09.132Z,97753.47
2022-10-20T03:44:36.988Z,97741.53
2022-10-20T03:47:04.811Z,97742.56
2022-10-20T03:49:34.063Z,97736.38
2022-10-20T03:52:01.955Z,97737.38
2022-10-20T03:54:29.867Z,97734.91
2022-10-20T03:56:57.757Z,97738.59
2022-10-20T03:59:28.092Z,97736.94
2022-10-20T04:01:58.387Z,97735.09
2022-10-20T04:04:26.357Z,97734.06
2022-10-20T04:06:54.136Z,97743.59
2022-10-20T04:09:22.110Z,97739.03
2022-10-20T04:11:49.921Z,97724.59
2022-10-20T04:14:17.767Z,97724.59
2022-10-20T04:16:45.600Z,97735.13
2022-10-20T04:19:13.801Z,97724.41
2022-10-20T04:21:41.667Z,97719.69
2022-10-20T04:24:09.517Z,97716.16
2022-10-20T04:26:37.338Z,97715.97
2022-10-20T04:29:05.309Z,97714.94
2022-10-20T04:31:33.145Z,97713.97
2022-10-20T04:34:01.046Z,97717.63
2022-10-20T04:36:28.877Z,97708.59
2022-10-20T04:38:56.716Z,97707.38
2022-10-20T04:41:24.522Z,97700.38
2022-10-20T04:43:53.250Z,97708.75
2022-10-20T04:46:21.142Z,97707.09
2022-10-20T04:48:49.002Z,97713.13
2022-10-20T04:51:17.152Z,97705.91
2022-10-20T04:53:45.429Z,97699.69
2022-10-20T04:56:19.692Z,97704.88
2022-10-20T04:58:56.472Z,97699.50
2022-10-20T05:01:28.215Z,97690.44
2022-10-20T05:03:56.737Z,97692.66
2022-10-20T05:06:28.935Z,97689.97
2022-10-20T05:09:00.234Z,97685.09
2022-10-20T05:11:30.322Z,97688.78
2022-10-20T05:13:58.726Z,97694.31
2022-10-20T05:16:27.022Z,97686.28
2022-10-20T05:18:56.058Z,97686.28
2022-10-20T05:21:28.371Z,97678.59
2022-10-20T05:24:02.936Z,97685.63
2022-10-20T05:26:37.073Z,97682.31
2022-10-20T05:29:07.833Z,97676.28
2022-10-20T05:31:43.760Z,97673.59
2022-10-20T05:34:12.615Z,97658.09
2022-10-20T05:36:40.690Z,97651.25
2022-10-20T05:39:08.556Z,97650.44
2022-10-20T05:41:39.473Z,97652.47
2022-10-20T05:44:09.168Z,97650.00
2022-10-20T05:46:43.667Z,97655.38
2022-10-20T05:49:15.995Z,97641.31
2022-10-20T05:51:46.488Z,97643.34
2022-10-20T05:54:15.463Z,97642.06
2022-10-20T05:56:43.561Z,97629.88
2022-10-20T05:59:14.005Z,97631.53
2022-10-20T06:01:48.444Z,97638.56
2022-10-20T06:04:28.161Z,97647.22
2022-10-20T06:06:58.976Z,97646.03
2022-10-20T06:09:27.182Z,97644.19
2022-10-20T06:11:55.225Z,97652.69
2022-10-20T06:14:23.346Z,97654.31
2022-10-20T06:16:53.147Z,97654.13
2022-10-20T06:19:21.053Z,97659.94
2022-10-20T06:21:49.696Z,97657.91
2022-10-20T06:24:19.076Z,97655.84
2022-10-20T06:26:46.935Z,97664.72
2022-10-20T06:29:18.191Z,97674.47
2022-10-20T06:31:51.000Z,97673.41
2022-10-20T06:34:28.053Z,97670.16
2022-10-20T06:36:55.832Z,97666.63
2022-10-20T06:39:25.260Z,97656.75
2022-10-20T06:41:55.103Z,97655.75
2022-10-20T06:44:24.629Z,97669.97
2022-10-20T06:46:52.859Z,97674.97
2022-10-20T06:49:21.427Z,97680.16
2022-10-20T06:51:49.701Z,97680.16
2022-10-20T06:54:18.531Z,97675.25
2022-10-20T06:56:46.352Z,97678.38
2022-10-20T06:59:14.230Z,97673.81
2022-10-20T07:01:42.370Z,97669.28
2022-10-20T07:04:16.826Z,97666.59
2022-10-20T07:06:46.423Z,97655.47
2022-10-20T07:09:18.773Z,97663.31
2022-10-20T07:11:51.069Z,97658.78
2022-10-20T07:14:19.565Z,97663.38
2022-10-20T07:16:47.735Z,97670.84
2022-10-20T07:19:15.929Z,97674.38
2022-10-20T07:21:45.618Z,97691.94
2022-10-20T07:24:17.201Z,97690.34
2022-10-20T07:26:45.392Z,97666.38
2022-10-20T07:29:14.886Z,97676.38
2022-10-20T07:31:48.080Z,97675.78
2022-10-20T07:34:27.219Z,97689.22
2022-10-20T07:36:57.025Z,97683.09
2022-10-20T07:39:26.177Z,97695.09
2022-10-20T07:41:54.109Z,97689.31
2022-10-20T07:44:22.086Z,97696.81
2022-10-20T07:46:50.191Z,97690.19
2022-10-20T07:52:06.238Z,97682.16
2022-10-20T07:54:34.344Z,97675.56
2022-10-20T07:57:02.286Z,97686.97
2022-10-20T07:59:30.197Z,97689.22
2022-10-20T08:01:59.837Z,97687.81
2022-10-20T08:04:31.578Z,97675.84
2022-10-20T08:07:00.389Z,97684.97
2022-10-20T08:09:28.324Z,97672.19
2022-10-20T08:11:57.957Z,97665.56
2022-10-20T08:14:32.062Z,97664.75
2022-10-20T08:17:01.832Z,97656.53
2022-10-20T08:19:43.255Z,97652.41
2022-10-20T08:22:11.594Z,97644.34
2022-10-20T08:24:39.664Z,97647.44
2022-10-20T08:27:08.070Z,97656.16
2022-10-20T08:29:36.831Z,97652.84
2022-10-20T08:32:05.453Z,97651.78
2022-10-20T08:34:33.494Z,97659.66
2022-10-20T08:37:01.337Z,97651.59
2022-10-20T08:39:29.232Z,97651.19
2022-10-20T08:42:12.895Z,97661.53
2022-10-20T08:44:44.595Z,97662.81
2022-10-20T08:47:47.716Z,97670.06
2022-10-20T08:50:18.161Z,97669.25
2022-10-20T08:52:50.400Z,97684.34
2022-10-20T08:55:33.312Z,97675.06
2022-10-20T08:58:16.927Z,97685.81
2022-10-20T09:00:46.784Z,97675.66
2022-10-20T09:03:34.125Z,97667.78
2022-10-20T09:06:15.217Z,97656.00
2022-10-20T09:08:49.092Z,97668.88
2022-10-20T09:11:35.560Z,97677.78
2022-10-20T09:14:04.108Z,97670.94
2022-10-20T09:16:58.707Z,97669.50
2022-10-20T09:19:29.344Z,97668.50
2022-10-20T09:22:04.039Z,97680.50
2022-10-20T09:24:35.229Z,97678.25
2022-10-20T09:27:29.507Z,97688.78
2022-10-20T09:29:57.258Z,97687.94
2022-10-20T09:32:46.096Z,97676.53
2022-10-20T09:35:30.132Z,97685.47
2022-10-20T09:38:29.685Z,97696.44
2022-10-20T09:41:28.428Z,97696.63
2022-10-20T09:44:12.798Z,97695.78
2022-10-20T09:46:49.369Z,97692.88
2022-10-20T09:49:30.339Z,97690.78
2022-10-20T09:52:00.289Z,97688.50
2022-10-20T09:54:29.475Z,97692.59
2022-10-20T09:57:18.989Z,97697.78
2022-10-20T09:59:51.456Z,97701.69
2022-10-20T10:02:22.078Z,97691.69
2022-10-20T10:04:53.445Z,97693.31
2022-10-20T10:07:27.373Z,97685.81
2022-10-20T10:10:24.012Z,97672.50
2022-10-20T10:12:57.932Z,97663.75
2022-10-20T10:15:26.975Z,97680.16
2022-10-20T10:17:55.470Z,97693.44
2022-10-20T10:20:23.202Z,97681.78
2022-10-20T10:22:51.206Z,97696.69
2022-10-20T10:25:27.693Z,97690.22
2022-10-20T10:28:19.856Z,97680.00
2022-10-20T10:30:50.072Z,97686.19
2022-10-20T10:33:29.122Z,97691.34
2022-10-20T10:35:57.825Z,97696.88
2022-10-20T10:38:25.683Z,97687.69
2022-10-20T10:41:02.059Z,97676.19
2022-10-20T10:44:30.095Z,97682.81
2022-10-20T10:47:14.278Z,97669.03
2022-10-20T10:50:31.081Z,97670.91
2022-10-20T10:53:20.014Z,97645.16
2022-10-20T10:55:55.829Z,97646.44
2022-10-20T10:59:27.631Z,97647.44
2022-10-20T11:02:19.386Z,97648.56
2022-10-20T11:05:05.761Z,97653.06
2022-10-20T11:07:39.227Z,97657.34
2022-10-20T11:10:16.722Z,97658.41
2022-10-20T11:13:31.392Z,97653.41
2022-10-20T11:16:01.740Z,97654.47
2022-10-20T11:19:21.690Z,97635.41
2022-10-20T11:22:22.625Z,97623.97
2022-10-20T11:25:27.849Z,97627.53
2022-10-20T11:27:58.517Z,97639.16
2022-10-20T11:30:27.552Z,97629.38
2022-10-20T11:33:05.542Z,97631.88
2022-10-20T11:35:40.442Z,97627.44
2022-10-20T11:38:42.620Z,97627.22
2022-10-20T11:41:38.368Z,97608.06
2022-10-20T11:44:28.962Z,97606.72
2022-10-20T11:47:23.054Z,97620.22
2022-10-20T11:49:52.142Z,97604.06
2022-10-20T11:52:46.129Z,97602.88
2022-10-20T11:55:36.639Z,97588.66
2022-10-20T11:58:29.368Z,97587.97
2022-10-20T12:01:28.268Z,97591.50
2022-10-20T12:04:19.696Z,97590.47
2022-10-20T12:07:23.869Z,97572.41
2022-10-20T12:10:15.354Z,97581.13
2022-10-20T12:13:20.368Z,97586.84
2022-10-20T12:15:51.892Z,97586.94
2022-10-20T12:18:30.681Z,97584.63
2022-10-20T12:21:01.561Z,97595.19
2022-10-20T12:23:49.117Z,97600.97
2022-10-20T12:26:43.881Z,97605.25
2022-10-20T12:29:30.966Z,97593.84
2022-10-20T12:32:29.985Z,97582.25
2022-10-20T12:35:21.966Z,97576.41
2022-10-20T12:38:19.006Z,97576.25
2022-10-20T12:40:58.180Z,97574.41
2022-10-20T12:43:32.188Z,97570.84
2022-10-20T12:46:09.178Z,97563.00
2022-10-20T12:48:44.858Z,97577.78
2022-10-20T12:51:24.546Z,97591.75
2022-10-20T12:54:17.947Z,97579.09
2022-10-20T12:56:46.126Z,97577.25
2022-10-20T12:59:33.686Z,97573.94
2022-10-20T13:02:10.334Z,97573.19
2022-10-20T13:04:58.190Z,97571.81
2022-10-20T13:07:50.353Z,97558.53
2022-10-20T13:10:37.447Z,97546.09
2022-10-20T13:13:05.186Z,97531.97
2022-10-20T13:15:44.836Z,97540.28
2022-10-20T13:18:12.742Z,97542.41
2022-10-20T13:21:28.537Z,97547.25
2022-10-20T13:24:27.408Z,97541.88
2022-10-20T13:27:00.657Z,97533.16
2022-10-20T13:29:37.935Z,97550.81
2022-10-20T13:32:34.334Z,97541.44
2022-10-20T13:35:39.306Z,97537.22
2022-10-20T13:38:23.828Z,97531.50
2022-10-20T13:41:29.060Z,97528.56
2022-10-20T13:44:22.502Z,97552.69
2022-10-20T13:47:26.076Z,97562.47
2022-10-20T13:50:09.852Z,97559.81
2022-10-20T13:52:49.823Z,97559.38
2022-10-20T13:55:52.028Z,97570.19
2022-10-20T13:58:25.865Z,97570.78
2022-10-20T14:01:07.501Z,97575.00
2022-10-20T14:03:44.945Z,97571.09
2022-10-20T14:06:28.107Z,97567.31
2022-10-20T14:08:58.486Z,97562.13
2022-10-20T14:11:32.114Z,97555.91
2022-10-20T14:14:01.446Z,97560.56
2022-10-20T14:16:31.872Z,97574.16
2022-10-20T14:19:09.336Z,97563.00
2022-10-20T14:21:51.107Z,97558.47
2022-10-20T14:24:43.021Z,97564.94
2022-10-20T14:27:31.941Z,97555.63
2022-10-20T14:30:03.258Z,97547.97
2022-10-20T14:32:35.326Z,97544.44
2022-10-20T14:35:44.706Z,97534.06
2022-10-20T14:38:38.505Z,97518.91
2022-10-20T14:41:09.964Z,97488.00
2022-10-20T14:43:41.814Z,97492.16
2022-10-20T14:46:13.817Z,97493.03
2022-10-20T14:48:49.229Z,97507.56
2022-10-20T14:51:45.952Z,97506.75
2022-10-20T14:54:25.885Z,97502.38
2022-10-20T14:57:24.988Z,97513.06
2022-10-20T15:00:06.236Z,97523.66
2022-10-20T15:02:42.265Z,97519.28
2022-10-20T15:05:37.827Z,97529.25
2022-10-20T15:08:30.842Z,97531.16
2022-10-20T15:10:59.111Z,97517.84
2022-10-20T15:13:32.803Z,97516.19
2022-10-20T15:16:02.991Z,97524.59
2022-10-20T15:18:31.154Z,97510.94
2022-10-20T15:20:59.054Z,97514.56
2022-10-20T15:23:29.341Z,97506.06
2022-10-20T15:26:14.551Z,97518.75
2022-10-20T15:28:49.397Z,97528.34
2022-10-20T15:31:22.205Z,97527.72
2022-10-20T15:33:50.993Z,97524.81
2022-10-20T15:36:22.571Z,97530.69
2022-10-20T15:38:51.292Z,97531.72
2022-10-20T15:41:22.729Z,97523.84
2022-10-20T15:43:50.990Z,97532.78
2022-10-20T15:46:20.277Z,97527.38
2022-10-20T15:48:49.151Z,97503.50
2022-10-20T15:51:24.593Z,97513.03
2022-10-20T15:53:52.615Z,97517.81
2022-10-20T15:56:20.828Z,97511.00
2022-10-20T15:58:52.076Z,97495.22
2022-10-20T16:01:21.780Z,97488.16
2022-10-20T16:03:50.363Z,97502.50
2022-10-20T16:06:19.633Z,97504.19
2022-10-20T16:08:49.963Z,97502.50
2022-10-20T16:11:20.383Z,97504.38
2022-10-20T16:13:48.939Z,97508.31
2022-10-20T16:16:19.789Z,97506.91
2022-10-20T16:18:47.692Z,97498.81
2022-10-20T16:21:15.516Z,97505.28
2022-10-20T16:23:44.966Z,97496.31
2022-10-20T16:26:14.421Z,97509.22
2022-10-20T16:28:42.522Z,97510.06
2022-10-20T16:31:14.234Z,97512.78
2022-10-20T16:33:42.841Z,97513.81
2022-10-20T16:36:14.967Z,97513.19
2022-10-20T16:38:43.855Z,97506.13
2022-10-20T16:41:15.481Z,97499.91
2022-10-20T16:43:46.135Z,97507.19
2022-10-20T16:46:16.051Z,97496.63
2022-10-20T16:48:47.571Z,97492.50
2022-10-20T16:51:17.275Z,97472.53
2022-10-20T16:53:45.395Z,97477.13
2022-10-20T16:56:16.600Z,97482.50
2022-10-20T16:58:48.163Z,97499.53
2022-10-20T17:01:19.309Z,97488.94
2022-10-20T17:03:50.861Z,97488.94
2022-10-20T17:06:23.680Z,97492.50
2022-10-20T17:08:53.233Z,97489.78
2022-10-20T17:11:30.615Z,97488.94
2022-10-20T17:13:59.588Z,97478.59
2022-10-20T17:16:34.222Z,97472.81
2022-10-20T17:19:03.399Z,97469.31
2022-10-20T17:21:32.862Z,97469.53
2022-10-20T17:24:01.592Z,97475.13
2022-10-20T17:26:31.495Z,97480.53
2022-10-20T17:29:01.402Z,97485.34
2022-10-20T17:31:30.004Z,97495.31
2022-10-20T17:33:59.295Z,97498.00
2022-10-20T17:36:28.592Z,97483.09
2022-10-20T17:39:07.255Z,97481.44
2022-10-20T17:41:36.194Z,97477.91
2022-10-20T17:44:07.800Z,97471.31
2022-10-20T17:46:36.254Z,97465.31
2022-10-20T17:49:04.409Z,97471.53
2022-10-20T17:51:34.777Z,97493.09
2022-10-20T17:54:03.955Z,97509.31
2022-10-20T17:56:35.861Z,97528.84
2022-10-20T17:59:07.505Z,97528.47
2022-10-20T18:01:40.733Z,97521.41
2022-10-20T18:04:15.621Z,97528.22
2022-10-20T18:06:45.236Z,97537.59
2022-10-20T18:09:18.516Z,97535.72
2022-10-20T18:11:51.726Z,97531.38
2022-10-20T18:14:20.426Z,97523.91
2022-10-20T18:16:49.685Z,97522.84
2022-10-20T18:19:19.459Z,97541.50
2022-10-20T18:21:47.909Z,97542.97
2022-10-20T18:24:18.100Z,97545.66
2022-10-20T18:26:46.911Z,97547.91
2022-10-20T18:29:15.952Z,97534.19
2022-10-20T18:31:46.262Z,97525.50
2022-10-20T18:34:20.002Z,97529.47
2022-10-20T18:36:48.527Z,97507.88
2022-10-20T18:39:17.907Z,97517.00
2022-10-20T18:41:46.524Z,97498.78
2022-10-20T18:44:17.536Z,97499.00
2022-10-20T18:46:47.131Z,97514.00
2022-10-20T18:49:19.720Z,97490.72
2022-10-20T18:51:48.285Z,97490.72
2022-10-20T18:54:17.818Z,97482.84
2022-10-20T18:56:45.897Z,97481.00
2022-10-20T18:59:16.502Z,97482.50
2022-10-20T19:01:45.741Z,97473.16
2022-10-20T19:04:13.861Z,97467.63
2022-10-20T19:06:46.974Z,97482.94
2022-10-20T19:09:18.659Z,97492.50
2022-10-20T19:11:48.159Z,97478.63
2022-10-20T19:14:16.428Z,97484.00
2022-10-20T19:16:47.089Z,97486.09
2022-10-20T19:19:15.715Z,97481.31
2022-10-20T19:21:44.847Z,97500.81
2022-10-20T19:24:21.566Z,97478.22
2022-10-20T19:27:24.383Z,97477.78
2022-10-20T19:29:42.926Z,97479.66
2022-10-20T19:32:12.238Z,97474.50
2022-10-20T19:34:41.388Z,97475.53
2022-10-20T19:37:09.893Z,97470.59
2022-10-20T19:39:42.147Z,97462.91
2022-10-20T19:42:11.328Z,97468.53
2022-10-20T19:44:39.957Z,97467.25
2022-10-20T19:47:08.251Z,97462.72
2022-10-20T19:49:37.738Z,97463.72
2022-10-20T19:52:07.013Z,97462.31
2022-10-20T19:54:34.975Z,97455.44
2022-10-20T19:57:03.300Z,97448.16
2022-10-20T19:59:31.123Z,97447.72
2022-10-20T20:01:59.122Z,97445.63
2022-10-20T20:04:27.032Z,97440.41
2022-10-20T20:06:59.662Z,97436.66
2022-10-20T20:09:30.258Z,97450.13
2022-10-20T20:11:58.435Z,97466.91
2022-10-20T20:14:26.394Z,97467.72
2022-10-20T20:16:54.248Z,97456.75
2022-10-20T20:19:22.114Z,97461.53
2022-10-20T20:21:50.014Z,97458.84
2022-10-20T20:24:17.852Z,97467.16
2022-10-20T20:26:47.054Z,97462.59
2022-10-20T20:29:14.959Z,97450.38
2022-10-20T20:31:42.847Z,97451.63
2022-10-20T20:34:10.673Z,97461.38
2022-10-20T20:36:39.583Z,97461.16
2022-10-20T20:39:07.947Z,97468.44
2022-10-20T20:41:35.821Z,97468.84
2022-10-20T20:44:07.917Z,97454.75
2022-10-20T20:46:36.973Z,97446.47
2022-10-20T20:49:05.675Z,97453.13
2022-10-20T20:51:34.094Z,97475.53
2022-10-20T20:54:03.659Z,97497.09
2022-10-20T20:56:31.907Z,97495.69
2022-10-20T20:58:59.897Z,97483.22
2022-10-20T21:01:33.193Z,97493.19
2022-10-20T21:04:04.887Z,97495.06
2022-10-20T21:06:43.192Z,97492.81
2022-10-20T21:09:21.143Z,97478.03
2022-10-20T21:11:49.340Z,97469.72
2022-10-20T21:14:17.371Z,97469.53
2022-10-20T21:16:45.977Z,97454.41
2022-10-20T21:19:14.084Z,97474.72
2022-10-20T21:21:47.175Z,97477.41
2022-10-20T21:24:15.063Z,97470.31
2022-10-20T21:26:43.760Z,97454.34
2022-10-20T21:29:11.810Z,97440.47
2022-10-20T21:31:40.296Z,97427.66
2022-10-20T21:34:08.311Z,97439.47
2022-10-20T21:36:37.832Z,97431.38
2022-10-20T21:39:08.719Z,97425.59
2022-10-20T21:41:37.369Z,97416.88
2022-10-20T21:44:07.292Z,97424.38
2022-10-20T21:46:42.174Z,97426.25
2022-10-20T21:49:14.251Z,97427.28
2022-10-20T21:51:45.545Z,97423.34
2022-10-20T21:56:54.062Z,97417.75
2022-10-20T21:59:28.010Z,97429.78
2022-10-20T22:01:59.209Z,97426.25
2022-10-20T22:04:29.490Z,97421.25
2022-10-20T22:06:59.591Z,97421.03
2022-10-20T22:09:28.058Z,97418.94
2022-10-20T22:11:58.506Z,97419.56
2022-10-20T22:14:26.783Z,97428.66
2022-10-20T22:16:56.673Z,97426.78
2022-10-20T22:19:25.427Z,97421.66
2022-10-20T22:21:54.383Z,97416.25
2022-10-20T22:24:23.661Z,97427.25
2022-10-20T22:26:52.742Z,97422.06
2022-10-20T22:29:22.450Z,97408.81
2022-10-20T22:31:50.713Z,97406.94
2022-10-20T22:34:18.664Z,97407.78
2022-10-20T22:36:46.564Z,97396.59
2022-10-20T22:39:14.650Z,97397.41
2022-10-20T22:41:42.740Z,97383.72
2022-10-20T22:44:10.875Z,97395.31
2022-10-20T22:46:38.702Z,97396.97
2022-10-20T22:49:06.541Z,97383.50
2022-10-20T22:51:34.405Z,97396.97
2022-10-20T22:54:03.045Z,97389.91
2022-10-20T22:56:30.903Z,97387.69
2022-10-20T22:58:58.730Z,97383.50
2022-10-20T23:01:26.621Z,97380.00
2022-10-20T23:03:54.477Z,97379.59
2022-10-20T23:06:26.081Z,97372.78
2022-10-20T23:08:56.420Z,97371.38
2022-10-20T23:11:24.906Z,97369.69
2022-10-20T23:13:52.888Z,97370.97
2022-10-20T23:16:21.197Z,97369.09
2022-10-20T23:18:49.090Z,97366.41
2022-10-20T23:21:18.147Z,97371.78
2022-10-20T23:23:46.463Z,97370.31
2022-10-20T23:26:14.305Z,97371.13
2022-10-20T23:28:42.098Z,97362.81
2022-10-20T23:31:13.725Z,97376.50
2022-10-20T23:33:44.349Z,97375.47
2022-10-20T23:36:13.800Z,97375.88
2022-10-20T23:38:43.030Z,97377.50
2022-10-20T23:41:11.460Z,97393.09
2022-10-20T23:43:39.555Z,97377.34
2022-10-20T23:46:07.907Z,97391.06
2022-10-20T23:48:35.944Z,97378.66
2022-10-20T23:51:05.035Z,97370.19
2022-10-20T23:53:33.833Z,97392.63
2022-10-20T23:56:01.673Z,97386.25
2022-10-20T23:58:29.578Z,97388.75
